createdAt,value
2022-12-24T00:03:23.343Z,96954.44
2022-12-24T00:08:25.383Z,96975.38
2022-12-24T00:13:27.286Z,96973.84
2022-12-24T00:18:29.158Z,96982.34
2022-12-24T00:23:31.043Z,96983.13
2022-12-24T00:28:33.051Z,96985.47
2022-12-24T00:33:34.878Z,96987.41
2022-12-24T00:38:37.127Z,96981.19
2022-12-24T00:43:38.975Z,96996.31
2022-12-24T00:48:40.817Z,96993.22
2022-12-24T00:53:43.221Z,97004.88
2022-12-24T00:58:45.419Z,97008.75
2022-12-24T01:03:47.750Z,97011.84
2022-12-24T01:08:52.723Z,97002.94
2022-12-24T01:13:56.093Z,97027.75
2022-12-24T01:18:57.963Z,97035.50
2022-12-24T01:23:59.840Z,97045.97
2022-12-24T01:29:01.813Z,97056.09
2022-12-24T01:34:03.930Z,97067.69
2022-12-24T01:39:05.874Z,97070.78
2022-12-24T01:44:25.324Z,97066.16
2022-12-24T01:49:31.061Z,97077.78
2022-12-24T01:54:34.980Z,97080.13
2022-12-24T01:59:39.003Z,97104.97
2022-12-24T02:04:46.712Z,97093.31
2022-12-24T02:09:51.362Z,97101.03
2022-12-24T02:14:54.326Z,97092.50
2022-12-24T02:20:27.127Z,97103.38
2022-12-24T02:25:36.130Z,97116.53
2022-12-24T02:30:48.797Z,97111.91
2022-12-24T02:36:10.883Z,97119.66
2022-12-24T02:41:50.195Z,97130.56
2022-12-24T02:46:53.213Z,97145.25
2022-12-24T02:51:55.167Z,97146.03
2022-12-24T02:57:03.059Z,97144.47
2022-12-24T03:02:26.296Z,97156.84
2022-12-24T03:07:38.320Z,97169.28
2022-12-24T03:12:44.899Z,97176.19
2022-12-24T03:17:49.456Z,97180.88
2022-12-24T03:22:51.511Z,97179.25
2022-12-24T03:27:55.335Z,97184.00
2022-12-24T03:32:57.200Z,97190.94
2022-12-24T03:37:59.078Z,97189.75
2022-12-24T03:43:00.968Z,97187.78
2022-12-24T03:48:02.884Z,97195.50
2022-12-24T03:53:04.732Z,97204.41
2022-12-24T03:58:07.026Z,97210.97
2022-12-24T04:03:09.003Z,97204.03
2022-12-24T04:08:10.911Z,97216.44
2022-12-24T04:13:12.742Z,97224.97
2022-12-24T04:18:14.590Z,97241.28
2022-12-24T04:23:16.428Z,97240.13
2022-12-24T04:28:18.651Z,97239.78
2022-12-24T04:33:20.468Z,97253.38
2022-12-24T04:38:22.300Z,97265.41
2022-12-24T04:43:24.152Z,97269.31
2022-12-24T04:48:25.982Z,97263.91
2022-12-24T04:53:27.842Z,97272.44
2022-12-24T04:58:29.795Z,97291.03
2022-12-24T05:03:31.875Z,97297.94
2022-12-24T05:08:34.467Z,97300.19
2022-12-24T05:13:44.045Z,97297.75
2022-12-24T05:18:48.447Z,97322.91
2022-12-24T05:24:09.639Z,97329.47
2022-12-24T05:29:12.722Z,97332.50
2022-12-24T05:34:16.167Z,97345.66
2022-12-24T05:39:18.738Z,97352.63
2022-12-24T05:44:20.663Z,97358.81
2022-12-24T05:49:22.517Z,97359.16
2022-12-24T05:54:24.349Z,97364.88
2022-12-24T05:59:26.168Z,97383.75
2022-12-24T06:04:29.252Z,97386.41
2022-12-24T06:09:31.475Z,97406.47
2022-12-24T06:14:34.555Z,97421.81
2022-12-24T06:19:36.490Z,97420.59
2022-12-24T06:24:38.327Z,97434.13
2022-12-24T06:29:40.183Z,97437.91
2022-12-24T06:34:42.015Z,97446.47
2022-12-24T06:39:46.224Z,97452.28
2022-12-24T06:44:48.344Z,97452.69
2022-12-24T06:49:50.395Z,97451.97
2022-12-24T06:54:52.336Z,97467.56
2022-12-24T06:59:54.209Z,97479.25
2022-12-24T07:04:56.039Z,97498.69
2022-12-24T07:09:58.022Z,97500.63
2022-12-24T07:15:00.043Z,97502.19
2022-12-24T07:20:02.286Z,97524.31
2022-12-24T07:25:04.388Z,97522.75
2022-12-24T07:30:06.986Z,97523.94
2022-12-24T07:35:09.328Z,97526.28
2022-12-24T07:40:11.476Z,97539.81
2022-12-24T07:45:13.332Z,97546.81
2022-12-24T07:50:15.237Z,97559.22
2022-12-24T07:55:17.170Z,97587.09
2022-12-24T08:00:19.398Z,97583.63
2022-12-24T08:05:21.260Z,97601.75
2022-12-24T08:10:23.155Z,97611.03
2022-12-24T08:15:24.959Z,97610.56
2022-12-24T08:20:27.000Z,97613.69
2022-12-24T08:25:28.929Z,97618.75
2022-12-24T08:30:30.829Z,97625.72
2022-12-24T08:35:32.711Z,97632.28
2022-12-24T08:40:34.703Z,97647.09
2022-12-24T08:45:40.916Z,97641.31
2022-12-24T08:50:43.093Z,97660.34
2022-12-24T08:55:47.852Z,97663.81
2022-12-24T09:00:54.000Z,97677.13
2022-12-24T09:05:56.140Z,97695.81
2022-12-24T09:11:06.212Z,97689.78
2022-12-24T09:16:08.829Z,97687.34
2022-12-24T09:21:14.602Z,97693.13
2022-12-24T09:26:20.275Z,97707.75
2022-12-24T09:31:22.219Z,97708.69
2022-12-24T09:36:24.147Z,97715.75
2022-12-24T09:41:32.678Z,97731.28
2022-12-24T09:46:39.644Z,97723.50
2022-12-24T09:51:46.237Z,97729.00
2022-12-24T09:56:49.838Z,97753.81
2022-12-24T10:01:54.061Z,97743.66
2022-12-24T10:07:20.371Z,97766.50
2022-12-24T10:12:38.190Z,97761.28
2022-12-24T10:17:52.355Z,97773.78
2022-12-24T10:23:05.326Z,97784.09
2022-12-24T10:28:18.209Z,97784.94
2022-12-24T10:33:32.308Z,97818.94
2022-12-24T10:38:34.372Z,97804.09
2022-12-24T10:43:38.302Z,97798.56
2022-12-24T10:48:50.869Z,97800.06
2022-12-24T10:54:00.893Z,97799.69
2022-12-24T10:59:03.293Z,97825.72
2022-12-24T11:04:05.116Z,97833.47
2022-12-24T11:09:24.262Z,97835.06
2022-12-24T11:14:33.246Z,97828.03
2022-12-24T11:19:40.257Z,97838.78
2022-12-24T11:24:48.127Z,97846.44
2022-12-24T11:29:51.852Z,97854.06
2022-12-24T11:34:53.711Z,97854.53
2022-12-24T11:40:00.800Z,97862.75
2022-12-24T11:45:17.636Z,97865.66
2022-12-24T11:50:27.939Z,97865.66
2022-12-24T11:55:35.477Z,97872.66
2022-12-24T12:00:39.525Z,97887.94
2022-12-24T12:05:41.701Z,97883.84
2022-12-24T12:10:45.671Z,97880.09
2022-12-24T12:16:11.613Z,97890.28
2022-12-24T12:21:19.254Z,97897.44
2022-12-24T12:26:29.723Z,97889.38
2022-12-24T12:31:38.983Z,97888.25
2022-12-24T12:36:47.463Z,97895.63
2022-12-24T12:42:02.714Z,97899.16
2022-12-24T12:47:22.839Z,97911.63
2022-12-24T12:52:56.335Z,97910.47
2022-12-24T12:58:03.563Z,97906.78
2022-12-24T13:03:42.968Z,97903.81
2022-12-24T13:08:57.219Z,97900.47
2022-12-24T13:14:36.772Z,97894.78
2022-12-24T13:19:54.791Z,97906.66
2022-12-24T13:24:57.142Z,97912.97
2022-12-24T13:30:24.306Z,97903.63
2022-12-24T13:35:35.153Z,97918.88
2022-12-24T13:40:39.284Z,97916.25
2022-12-24T13:45:44.004Z,97922.72
2022-12-24T13:50:49.902Z,97926.19
2022-12-24T13:55:57.517Z,97919.59
2022-12-24T14:01:03.307Z,97927.31
2022-12-24T14:06:12.920Z,97923.78
2022-12-24T14:11:20.007Z,97943.03
2022-12-24T14:16:24.950Z,97936.63
2022-12-24T14:21:32.336Z,97941.53
2022-12-24T14:26:36.922Z,97954.97
2022-12-24T14:31:38.850Z,97974.28
2022-12-24T14:36:44.674Z,97970.13
2022-12-24T14:41:57.190Z,97978.50
2022-12-24T14:48:03.953Z,97969.81
2022-12-24T14:53:22.849Z,98007.59
2022-12-24T14:58:31.573Z,98000.56
2022-12-24T15:03:33.891Z,98006.00
2022-12-24T15:08:47.128Z,98003.69
2022-12-24T15:13:58.646Z,98006.84
2022-12-24T15:19:07.196Z,98012.13
2022-12-24T15:24:29.094Z,98023.34
2022-12-24T15:29:33.186Z,98026.78
2022-12-24T15:34:41.301Z,98033.78
2022-12-24T15:39:44.252Z,98037.69
2022-12-24T15:45:28.404Z,98058.66
2022-12-24T15:50:43.508Z,98050.53
2022-12-24T15:55:59.321Z,98046.97
2022-12-24T16:01:13.310Z,98069.41
2022-12-24T16:06:16.369Z,98074.38
2022-12-24T16:11:21.444Z,98080.38
2022-12-24T16:16:33.199Z,98086.94
2022-12-24T16:21:39.220Z,98091.59
2022-12-24T16:26:41.772Z,98100.66
2022-12-24T16:31:47.494Z,98109.19
2022-12-24T16:36:50.039Z,98111.50
2022-12-24T16:42:13.245Z,98126.47
2022-12-24T16:47:25.844Z,98131.03
2022-12-24T16:52:30.747Z,98137.19
2022-12-24T16:57:34.389Z,98131.59
2022-12-24T17:02:36.341Z,98139.31
2022-12-24T17:07:43.402Z,98140.19
2022-12-24T17:12:45.975Z,98142.88
2022-12-24T17:17:47.819Z,98153.72
2022-12-24T17:22:50.706Z,98159.81
2022-12-24T17:27:52.553Z,98164.13
2022-12-24T17:32:54.362Z,98164.75
2022-12-24T17:37:56.171Z,98163.44
2022-12-24T17:42:57.979Z,98173.84
2022-12-24T17:47:59.824Z,98170.00
2022-12-24T17:53:01.639Z,98177.31
2022-12-24T17:58:03.535Z,98176.91
2022-12-24T18:03:05.807Z,98198.47
2022-12-24T18:08:07.769Z,98198.31
2022-12-24T18:13:13.926Z,98208.88
2022-12-24T18:18:21.005Z,98217.09
2022-12-24T18:23:22.849Z,98212.63
2022-12-24T18:28:24.668Z,98216.38
2022-12-24T18:33:26.828Z,98229.59
2022-12-24T18:38:29.812Z,98214.41
2022-12-24T18:43:31.734Z,98220.84
2022-12-24T18:48:34.221Z,98225.13
2022-12-24T18:53:36.875Z,98227.38
2022-12-24T18:58:41.274Z,98227.22
2022-12-24T19:03:46.302Z,98233.09
2022-12-24T19:08:57.615Z,98236.53
2022-12-24T19:14:02.948Z,98235.88
2022-12-24T19:19:07.077Z,98249.97
2022-12-24T19:24:10.810Z,98263.59
2022-12-24T19:29:12.907Z,98268.53
2022-12-24T19:34:15.094Z,98268.34
2022-12-24T19:39:17.232Z,98276.22
2022-12-24T19:44:19.383Z,98284.03
2022-12-24T19:49:21.889Z,98286.66
2022-12-24T19:54:28.291Z,98284.28
2022-12-24T19:59:46.974Z,98292.41
2022-12-24T20:04:50.827Z,98286.41
2022-12-24T20:09:53.448Z,98296.13
2022-12-24T20:14:56.748Z,98302.31
2022-12-24T20:19:58.720Z,98307.63
2022-12-24T20:25:00.860Z,98317.06
2022-12-24T20:30:03.239Z,98317.06
2022-12-24T20:35:05.830Z,98306.94
2022-12-24T20:40:08.673Z,98319.31
2022-12-24T20:45:11.032Z,98321.56
2022-12-24T20:50:13.243Z,98328.56
2022-12-24T20:55:15.402Z,98340.28
2022-12-24T21:00:18.399Z,98327.31
2022-12-24T21:05:20.491Z,98338.91
2022-12-24T21:10:26.767Z,98320.88
2022-12-24T21:15:36.379Z,98320.13
2022-12-24T21:20:43.108Z,98330.81
2022-12-24T21:25:45.103Z,98345.91
2022-12-24T21:30:46.994Z,98345.00
2022-12-24T21:35:49.101Z,98344.34
2022-12-24T21:41:16.130Z,98348.16
2022-12-24T21:46:22.431Z,98350.63
2022-12-24T21:51:25.936Z,98354.00
2022-12-24T21:56:27.816Z,98368.00
2022-12-24T22:01:29.788Z,98373.63
2022-12-24T22:06:50.228Z,98370.44
2022-12-24T22:11:54.927Z,98379.00
2022-12-24T22:16:56.928Z,98370.09
2022-12-24T22:21:59.347Z,98383.97
2022-12-24T22:27:01.224Z,98386.66
2022-12-24T22:32:04.261Z,98389.38
2022-12-24T22:37:06.160Z,98400.38
2022-12-24T22:42:08.079Z,98410.28
2022-12-24T22:47:09.990Z,98415.34
2022-12-24T22:52:11.867Z,98415.22
2022-12-24T22:57:13.806Z,98414.09
2022-12-24T23:02:18.329Z,98423.78
2022-12-24T23:07:22.764Z,98437.94
2022-12-24T23:12:44.548Z,98444.50
2022-12-24T23:17:49.019Z,98433.91
2022-12-24T23:22:50.882Z,98453.66
2022-12-24T23:27:52.718Z,98457.94
2022-12-24T23:32:54.835Z,98457.75
2022-12-24T23:37:56.684Z,98456.28
2022-12-24T23:42:58.520Z,98446.41
2022-12-24T23:48:00.405Z,98457.34
2022-12-24T23:53:02.270Z,98458.91
2022-12-24T23:58:05.361Z,98462.06
